createdAt,value
2023-02-13T00:00:49.110Z,44.65
2023-02-13T00:03:18.270Z,45.50
2023-02-13T00:05:46.135Z,56.55
2023-02-13T00:08:17.338Z,54.10
2023-02-13T00:10:45.389Z,50.15
2023-02-13T00:13:13.299Z,49.78
2023-02-13T00:15:42.690Z,47.00
2023-02-13T00:18:12.496Z,38.33
2023-02-13T00:20:40.432Z,46.00
2023-02-13T00:23:08.411Z,41.63
2023-02-13T00:25:36.392Z,47.67
2023-02-13T00:28:04.428Z,40.65
2023-02-13T00:30:32.345Z,48.05
2023-02-13T00:33:00.301Z,44.00
2023-02-13T00:35:30.116Z,36.63
2023-02-13T00:37:58.397Z,39.33
2023-02-13T00:40:26.586Z,44.10
2023-02-13T00:42:54.901Z,49.22
2023-02-13T00:45:22.806Z,48.10
2023-02-13T00:47:50.919Z,42.90
2023-02-13T00:50:18.974Z,47.92
2023-02-13T00:52:48.328Z,41.72
2023-02-13T00:55:16.480Z,41.13
2023-02-13T00:57:45.201Z,47.80
2023-02-13T01:00:14.379Z,40.75
2023-02-13T01:02:42.412Z,45.03
2023-02-13T01:05:10.695Z,38.90
2023-02-13T01:07:41.173Z,39.38
2023-02-13T01:10:11.263Z,40.30
2023-02-13T01:12:41.042Z,37.42
2023-02-13T01:15:09.776Z,41.88
2023-02-13T01:17:42.120Z,32.63
2023-02-13T01:20:14.760Z,36.78
2023-02-13T01:22:44.613Z,33.38
2023-02-13T01:25:13.990Z,32.28
2023-02-13T01:27:41.890Z,36.67
2023-02-13T01:30:14.671Z,38.35
2023-02-13T01:32:43.723Z,38.63
2023-02-13T01:35:13.160Z,47.55
2023-02-13T01:37:41.586Z,39.80
2023-02-13T01:40:12.312Z,37.47
2023-02-13T01:42:42.065Z,37.92
2023-02-13T01:45:23.715Z,41.25
2023-02-13T01:47:55.735Z,35.58
2023-02-13T01:50:27.049Z,34.30
2023-02-13T01:52:58.981Z,41.55
2023-02-13T01:55:28.696Z,22.95
2023-02-13T01:58:05.683Z,36.58
2023-02-13T02:00:34.985Z,30.67
2023-02-13T02:03:14.918Z,37.65
2023-02-13T02:05:44.110Z,38.15
2023-02-13T02:08:15.471Z,30.00
2023-02-13T02:10:43.798Z,32.88
2023-02-13T02:13:15.033Z,38.35
2023-02-13T02:15:44.092Z,33.15
2023-02-13T02:18:16.460Z,30.25
2023-02-13T02:23:59.851Z,29.13
2023-02-13T02:26:54.452Z,27.75
2023-02-13T02:29:53.225Z,30.52
2023-02-13T02:32:46.004Z,24.90
2023-02-13T02:38:09.512Z,29.38
2023-02-13T02:40:48.391Z,31.27
2023-02-13T02:43:29.326Z,30.60
2023-02-13T02:46:05.902Z,28.60
2023-02-13T02:49:02.206Z,27.67
2023-02-13T02:51:39.788Z,31.17
2023-02-13T02:54:28.251Z,26.00
2023-02-13T02:57:01.380Z,23.80
2023-02-13T02:59:48.436Z,29.88
2023-02-13T03:02:43.955Z,27.88
2023-02-13T03:05:38.107Z,26.40
2023-02-13T03:08:06.747Z,29.13
2023-02-13T03:10:55.679Z,25.40
2023-02-13T03:13:38.845Z,25.75
2023-02-13T03:16:25.295Z,29.08
2023-02-13T03:19:14.193Z,27.52
2023-02-13T03:22:07.292Z,24.13
2023-02-13T03:24:46.687Z,28.13
2023-02-13T03:27:44.556Z,35.38
2023-02-13T03:30:21.868Z,26.33
2023-02-13T03:33:01.321Z,27.92
2023-02-13T03:35:56.227Z,23.10
2023-02-13T03:38:30.835Z,31.65
2023-02-13T03:41:20.472Z,25.48
2023-02-13T03:44:00.179Z,28.13
2023-02-13T03:46:31.900Z,25.30
2023-02-13T03:49:20.179Z,24.23
2023-02-13T03:51:52.850Z,22.58
2023-02-13T03:54:44.646Z,27.20
2023-02-13T03:57:34.086Z,22.55
2023-02-13T04:00:04.371Z,23.23
2023-02-13T04:02:37.071Z,24.88
2023-02-13T04:05:10.567Z,23.80
2023-02-13T04:07:38.489Z,25.00
2023-02-13T04:10:11.614Z,25.55
2023-02-13T04:12:47.282Z,23.92
2023-02-13T04:15:19.783Z,25.45
2023-02-13T04:20:17.980Z,22.48
2023-02-13T04:22:47.202Z,24.67
2023-02-13T04:25:18.717Z,24.35
2023-02-13T04:27:46.608Z,28.67
2023-02-13T04:30:15.334Z,25.77
2023-02-13T04:32:43.280Z,25.17
2023-02-13T04:35:13.782Z,27.98
2023-02-13T04:37:41.995Z,29.38
2023-02-13T04:40:11.250Z,27.52
2023-02-13T04:42:40.546Z,30.65
2023-02-13T04:45:09.190Z,23.80
2023-02-13T04:47:37.275Z,29.77
2023-02-13T04:50:05.942Z,29.63
2023-02-13T04:52:33.952Z,33.03
2023-02-13T04:55:01.892Z,27.95
2023-02-13T04:57:29.872Z,27.55
2023-02-13T04:59:59.226Z,30.90
2023-02-13T05:02:27.207Z,24.30
2023-02-13T05:04:55.190Z,27.10
2023-02-13T05:07:23.091Z,25.10
2023-02-13T05:09:51.004Z,21.20
2023-02-13T05:12:18.834Z,28.50
2023-02-13T05:14:46.807Z,28.42
2023-02-13T05:17:16.148Z,24.85
2023-02-13T05:19:44.090Z,21.60
2023-02-13T05:22:30.013Z,25.27
2023-02-13T05:24:58.069Z,28.80
2023-02-13T05:27:26.117Z,31.45
2023-02-13T05:29:54.091Z,21.02
2023-02-13T05:32:23.682Z,28.58
2023-02-13T05:34:51.817Z,26.63
2023-02-13T05:37:22.304Z,25.65
2023-02-13T05:39:52.544Z,22.75
2023-02-13T05:42:20.608Z,25.48
2023-02-13T05:44:48.815Z,27.42
2023-02-13T05:47:18.339Z,25.40
2023-02-13T05:50:11.119Z,30.13
2023-02-13T05:52:41.481Z,27.15
2023-02-13T05:55:12.949Z,25.85
2023-02-13T05:57:50.115Z,23.13
2023-02-13T06:00:22.222Z,25.65
2023-02-13T06:02:50.539Z,31.05
2023-02-13T06:05:22.928Z,33.03
2023-02-13T06:10:21.748Z,25.98
2023-02-13T06:12:49.893Z,34.88
2023-02-13T06:15:19.785Z,36.20
2023-02-13T06:17:47.797Z,37.67
2023-02-13T06:20:15.973Z,33.30
2023-02-13T06:22:45.336Z,35.63
2023-02-13T06:25:13.741Z,37.13
2023-02-13T06:27:41.699Z,37.47
2023-02-13T06:30:13.823Z,35.03
2023-02-13T06:33:06.002Z,39.45
2023-02-13T06:35:36.790Z,30.23
2023-02-13T06:38:06.261Z,26.92
2023-02-13T06:44:16.655Z,36.00
2023-02-13T06:46:44.641Z,36.85
2023-02-13T06:49:12.782Z,38.45
2023-02-13T06:51:40.742Z,44.88
2023-02-13T06:54:10.167Z,35.95
2023-02-13T06:56:38.170Z,37.53
2023-02-13T06:59:06.087Z,41.63
2023-02-13T07:01:34.493Z,43.53
2023-02-13T07:04:02.412Z,95.10
2023-02-13T07:06:30.315Z,75.93
2023-02-13T07:08:58.371Z,53.25
2023-02-13T07:11:27.553Z,51.20
2023-02-13T07:13:55.439Z,45.78
2023-02-13T07:16:23.495Z,46.03
2023-02-13T07:18:51.481Z,52.45
2023-02-13T07:21:19.418Z,52.00
2023-02-13T07:23:47.418Z,46.72
2023-02-13T07:26:16.169Z,45.38
2023-02-13T07:28:45.912Z,50.10
2023-02-13T07:31:14.100Z,45.60
2023-02-13T07:33:42.079Z,43.67
2023-02-13T07:36:10.539Z,49.08
2023-02-13T07:38:38.500Z,47.45
2023-02-13T07:41:06.660Z,68.57
2023-02-13T07:43:34.846Z,75.28
2023-02-13T07:49:24.582Z,66.25
2023-02-13T07:51:52.581Z,65.22
2023-02-13T07:54:20.867Z,61.45
2023-02-13T07:56:48.952Z,73.13
2023-02-13T07:59:17.130Z,70.88
2023-02-13T08:01:45.296Z,60.33
2023-02-13T08:04:13.449Z,56.97
2023-02-13T08:06:43.622Z,50.20
2023-02-13T08:09:38.480Z,45.05
2023-02-13T08:12:10.314Z,42.05
2023-02-13T08:14:38.772Z,47.13
2023-02-13T08:17:06.839Z,48.72
2023-02-13T08:19:37.272Z,42.72
2023-02-13T08:22:06.701Z,43.40
2023-02-13T08:24:37.739Z,41.00
2023-02-13T08:27:05.840Z,40.40
2023-02-13T08:29:34.661Z,47.17
2023-02-13T08:32:02.759Z,43.97
2023-02-13T08:34:31.343Z,42.88
2023-02-13T08:36:59.328Z,51.67
2023-02-13T08:39:29.331Z,58.90
2023-02-13T08:41:57.310Z,46.80
2023-02-13T08:44:28.285Z,41.53
2023-02-13T08:46:56.581Z,41.47
2023-02-13T08:49:24.626Z,45.33
2023-02-13T08:51:52.644Z,42.70
2023-02-13T08:54:20.538Z,48.97
2023-02-13T08:56:51.145Z,43.05
2023-02-13T08:59:19.125Z,48.58
2023-02-13T09:01:47.295Z,42.88
2023-02-13T09:04:18.012Z,39.65
2023-02-13T09:06:46.478Z,49.50
2023-02-13T09:09:14.447Z,36.05
2023-02-13T09:11:42.358Z,46.80
2023-02-13T09:14:11.631Z,44.88
2023-02-13T09:16:42.490Z,43.67
2023-02-13T09:19:10.470Z,45.92
2023-02-13T09:21:38.416Z,43.72
2023-02-13T09:24:08.926Z,45.20
2023-02-13T09:26:37.297Z,37.25
2023-02-13T09:29:05.308Z,45.38
2023-02-13T09:31:34.827Z,42.25
2023-02-13T09:34:03.031Z,49.13
2023-02-13T09:36:33.197Z,41.40
2023-02-13T09:39:01.857Z,49.15
2023-02-13T09:41:32.941Z,54.42
2023-02-13T09:44:03.985Z,48.40
2023-02-13T09:46:37.461Z,47.42
2023-02-13T09:49:09.732Z,49.47
2023-02-13T09:51:38.510Z,54.03
2023-02-13T09:54:08.845Z,50.97
2023-02-13T09:56:46.878Z,51.63
2023-02-13T09:59:31.188Z,43.42
2023-02-13T10:02:18.564Z,51.13
2023-02-13T10:04:53.696Z,44.92
2023-02-13T10:07:26.846Z,40.58
2023-02-13T10:10:03.237Z,40.70
2023-02-13T10:12:47.509Z,38.80
2023-02-13T10:15:23.245Z,38.33
2023-02-13T10:18:00.179Z,37.25
2023-02-13T10:20:35.801Z,35.65
2023-02-13T10:23:18.379Z,33.53
2023-02-13T10:25:53.230Z,38.40
2023-02-13T10:28:36.606Z,40.28
2023-02-13T10:31:07.306Z,29.52
2023-02-13T10:33:45.057Z,32.97
2023-02-13T10:36:19.453Z,37.60
2023-02-13T10:39:01.396Z,30.70
2023-02-13T10:41:43.111Z,33.30
2023-02-13T10:44:22.298Z,31.13
2023-02-13T10:47:05.026Z,33.50
2023-02-13T10:49:56.329Z,28.92
2023-02-13T10:52:33.848Z,36.22
2023-02-13T10:55:20.997Z,28.92
2023-02-13T10:58:07.285Z,37.00
2023-02-13T11:00:46.907Z,26.92
2023-02-13T11:03:19.779Z,28.30
2023-02-13T11:05:50.513Z,35.38
2023-02-13T11:08:22.300Z,31.98
2023-02-13T11:10:52.603Z,30.35
2023-02-13T11:13:22.749Z,29.10
2023-02-13T11:16:03.570Z,25.15
2023-02-13T11:18:34.465Z,22.42
2023-02-13T11:21:09.336Z,24.63
2023-02-13T11:23:48.429Z,21.23
2023-02-13T11:26:23.472Z,21.40
2023-02-13T11:28:55.442Z,22.20
2023-02-13T11:31:27.740Z,19.30
2023-02-13T11:33:58.979Z,19.52
2023-02-13T11:36:31.424Z,21.92
2023-02-13T11:39:01.617Z,18.17
2023-02-13T11:41:32.100Z,17.05
2023-02-13T11:44:02.373Z,15.05
2023-02-13T11:46:32.488Z,17.23
2023-02-13T11:49:03.379Z,12.50
2023-02-13T11:51:47.524Z,16.15
2023-02-13T11:54:30.430Z,17.58
2023-02-13T11:57:04.694Z,14.60
2023-02-13T11:59:41.713Z,15.38
2023-02-13T12:02:24.340Z,16.55
2023-02-13T12:04:54.573Z,14.00
2023-02-13T12:07:27.375Z,14.52
2023-02-13T12:10:02.691Z,16.10
2023-02-13T12:12:38.630Z,15.80
2023-02-13T12:15:18.792Z,17.33
2023-02-13T12:17:49.459Z,17.15
2023-02-13T12:20:19.238Z,17.58
2023-02-13T12:23:01.074Z,16.30
2023-02-13T12:25:50.180Z,17.00
2023-02-13T12:28:22.617Z,15.75
2023-02-13T12:31:13.539Z,16.95
2023-02-13T12:34:04.992Z,16.58
2023-02-13T12:36:43.308Z,15.27
2023-02-13T12:39:20.063Z,16.58
2023-02-13T12:41:58.321Z,15.63
2023-02-13T12:44:43.078Z,16.75
2023-02-13T12:47:18.127Z,16.80
2023-02-13T12:50:18.234Z,15.88
2023-02-13T12:52:55.731Z,15.88
2023-02-13T12:55:43.498Z,17.05
2023-02-13T12:58:32.280Z,16.88
2023-02-13T13:01:11.465Z,16.70
2023-02-13T13:03:52.090Z,19.70
2023-02-13T13:06:40.883Z,18.35
2023-02-13T13:09:38.984Z,18.73
2023-02-13T13:12:29.028Z,19.95
2023-02-13T13:15:09.887Z,18.67
2023-02-13T13:17:50.229Z,18.92
2023-02-13T13:20:44.564Z,24.65
2023-02-13T13:23:20.210Z,23.67
2023-02-13T13:26:00.227Z,23.42
2023-02-13T13:28:37.416Z,22.02
2023-02-13T13:31:09.618Z,23.10
2023-02-13T13:33:40.379Z,25.17
2023-02-13T13:36:14.700Z,23.40
2023-02-13T13:38:52.047Z,23.70
2023-02-13T13:41:30.729Z,29.42
2023-02-13T13:44:07.903Z,28.15
2023-02-13T13:46:45.643Z,28.77
2023-02-13T13:49:25.904Z,27.48
2023-02-13T13:52:09.979Z,34.47
2023-02-13T13:54:40.903Z,29.95
2023-02-13T13:57:12.554Z,29.25
2023-02-13T14:00:26.080Z,27.05
2023-02-13T14:03:23.567Z,21.17
2023-02-13T14:06:04.802Z,26.85
2023-02-13T14:09:00.744Z,18.77
2023-02-13T14:11:33.325Z,26.65
2023-02-13T14:14:01.811Z,27.45
2023-02-13T14:16:43.048Z,27.50
2023-02-13T14:19:27.150Z,24.13
2023-02-13T14:21:55.798Z,27.95
2023-02-13T14:24:25.794Z,28.55
2023-02-13T14:27:05.124Z,39.67
2023-02-13T14:29:37.435Z,28.67
2023-02-13T14:32:20.032Z,29.92
2023-02-13T14:37:30.330Z,27.42
2023-02-13T14:40:31.980Z,29.90
2023-02-13T14:43:03.256Z,28.13
2023-02-13T14:45:34.314Z,29.65
2023-02-13T14:48:10.801Z,27.42
2023-02-13T14:50:46.994Z,32.30
2023-02-13T14:53:22.774Z,29.05
2023-02-13T14:55:58.351Z,29.45
2023-02-13T14:58:29.783Z,29.58
2023-02-13T15:01:03.508Z,28.17
2023-02-13T15:03:39.203Z,26.98
2023-02-13T15:06:15.151Z,30.73
2023-02-13T15:08:49.134Z,30.17
2023-02-13T15:11:38.835Z,29.77
2023-02-13T15:14:26.613Z,25.70
2023-02-13T15:17:00.697Z,27.73
2023-02-13T15:19:30.679Z,33.83
2023-02-13T15:22:05.360Z,29.05
2023-02-13T15:24:39.266Z,29.73
2023-02-13T15:27:08.795Z,24.73
2023-02-13T15:29:49.561Z,27.42
2023-02-13T15:32:22.490Z,24.42
2023-02-13T15:37:26.854Z,32.80
2023-02-13T15:39:55.377Z,27.52
2023-02-13T15:42:31.825Z,30.15
2023-02-13T15:45:00.647Z,28.52
2023-02-13T15:47:31.720Z,25.75
2023-02-13T15:50:05.367Z,26.95
2023-02-13T15:52:40.406Z,29.48
2023-02-13T15:55:20.807Z,29.20
2023-02-13T15:57:49.883Z,28.10
2023-02-13T16:00:29.636Z,28.23
2023-02-13T16:03:01.983Z,27.30
2023-02-13T16:05:44.150Z,26.20
2023-02-13T16:08:39.508Z,26.83
2023-02-13T16:11:29.611Z,28.02
2023-02-13T16:14:17.514Z,26.17
2023-02-13T16:16:58.886Z,31.23
2023-02-13T16:19:33.788Z,31.25
2023-02-13T16:22:08.038Z,29.13
2023-02-13T16:24:37.841Z,24.92
2023-02-13T16:27:15.543Z,32.03
2023-02-13T16:29:55.074Z,29.05
2023-02-13T16:32:39.429Z,29.30
2023-02-13T16:35:28.461Z,31.08
2023-02-13T16:38:09.171Z,33.00
2023-02-13T16:40:42.727Z,31.65
2023-02-13T16:43:40.179Z,27.88
2023-02-13T16:46:24.104Z,30.70
2023-02-13T16:49:17.717Z,33.67
2023-02-13T16:51:51.760Z,31.15
2023-02-13T16:54:26.550Z,26.65
2023-02-13T16:57:03.215Z,29.75
2023-02-13T16:59:51.584Z,31.35
2023-02-13T17:02:24.225Z,29.35
2023-02-13T17:07:24.856Z,32.85
2023-02-13T17:09:59.801Z,30.38
2023-02-13T17:12:29.102Z,24.30
2023-02-13T17:14:58.713Z,28.38
2023-02-13T17:17:29.604Z,28.27
2023-02-13T17:19:59.998Z,36.05
2023-02-13T17:22:37.616Z,35.03
2023-02-13T17:25:09.029Z,34.35
2023-02-13T17:27:37.027Z,31.55
2023-02-13T17:30:05.695Z,32.97
2023-02-13T17:32:33.658Z,35.40
2023-02-13T17:35:01.633Z,32.78
2023-02-13T17:37:30.047Z,33.28
2023-02-13T17:40:01.076Z,37.15
2023-02-13T17:42:31.346Z,36.28
2023-02-13T17:45:00.002Z,30.38
2023-02-13T17:47:30.342Z,36.60
2023-02-13T17:50:08.861Z,35.47
2023-02-13T17:52:38.243Z,41.95
2023-02-13T17:55:07.228Z,44.53
2023-02-13T17:57:36.738Z,46.80
2023-02-13T18:00:05.579Z,37.25
2023-02-13T18:02:34.309Z,39.45
2023-02-13T18:05:02.621Z,35.28
2023-02-13T18:07:30.633Z,40.72
2023-02-13T18:09:58.574Z,40.10
2023-02-13T18:12:26.689Z,37.55
2023-02-13T18:14:56.205Z,32.30
2023-02-13T18:17:24.179Z,42.95
2023-02-13T18:19:52.159Z,36.83
2023-02-13T18:22:20.289Z,38.10
2023-02-13T18:24:50.200Z,35.97
2023-02-13T18:27:18.498Z,37.10
2023-02-13T18:29:47.711Z,42.28
2023-02-13T18:32:17.150Z,43.15
2023-02-13T18:34:46.570Z,41.60
2023-02-13T18:37:14.668Z,36.05
2023-02-13T18:39:42.590Z,39.35
2023-02-13T18:42:11.475Z,35.63
2023-02-13T18:44:39.748Z,45.60
2023-02-13T18:47:08.091Z,38.17
2023-02-13T18:49:38.395Z,42.67
2023-02-13T18:52:06.801Z,45.13
2023-02-13T18:54:34.923Z,42.40
2023-02-13T18:57:07.332Z,35.13
2023-02-13T18:59:36.543Z,43.30
2023-02-13T19:02:14.887Z,38.08
2023-02-13T19:04:49.179Z,43.80
2023-02-13T19:07:22.987Z,44.67
2023-02-13T19:09:56.195Z,40.88
2023-02-13T19:12:25.495Z,41.67
2023-02-13T19:14:59.454Z,46.53
2023-02-13T19:17:40.841Z,47.53
2023-02-13T19:20:16.734Z,46.70
2023-02-13T19:22:47.715Z,52.33
2023-02-13T19:25:25.899Z,48.50
2023-02-13T19:28:13.699Z,42.58
2023-02-13T19:30:47.328Z,42.25
2023-02-13T19:33:17.432Z,47.40
2023-02-13T19:36:00.940Z,42.17
2023-02-13T19:38:29.820Z,41.05
2023-02-13T19:41:13.670Z,39.25
2023-02-13T19:43:44.236Z,35.80
2023-02-13T19:46:26.834Z,38.25
2023-02-13T19:49:00.314Z,45.53
2023-02-13T19:51:37.172Z,36.63
2023-02-13T19:54:12.503Z,44.30
2023-02-13T19:56:42.016Z,36.67
2023-02-13T19:59:13.579Z,47.97
2023-02-13T20:01:43.452Z,52.53
2023-02-13T20:04:12.052Z,48.55
2023-02-13T20:06:43.245Z,44.03
2023-02-13T20:09:13.221Z,43.42
2023-02-13T20:11:54.382Z,47.75
2023-02-13T20:14:22.706Z,47.05
2023-02-13T20:16:59.347Z,54.80
2023-02-13T20:19:35.154Z,47.20
2023-02-13T20:22:04.922Z,46.83
2023-02-13T20:24:36.366Z,43.60
2023-02-13T20:27:04.903Z,51.30
2023-02-13T20:29:38.554Z,55.38
2023-02-13T20:32:08.878Z,45.00
2023-02-13T20:37:49.864Z,41.92
2023-02-13T20:40:21.229Z,45.20
2023-02-13T20:42:59.782Z,46.85
2023-02-13T20:45:33.144Z,47.17
2023-02-13T20:48:31.473Z,45.13
2023-02-13T20:51:18.581Z,44.25
2023-02-13T20:53:50.487Z,42.13
2023-02-13T20:56:35.269Z,46.10
2023-02-13T20:59:08.046Z,48.42
2023-02-13T21:01:41.665Z,39.83
2023-02-13T21:04:15.024Z,41.58
2023-02-13T21:06:43.758Z,44.90
2023-02-13T21:09:16.665Z,39.47
2023-02-13T21:11:50.424Z,39.50
2023-02-13T21:14:21.135Z,45.22
2023-02-13T21:16:56.913Z,50.33
2023-02-13T21:19:40.122Z,40.33
2023-02-13T21:22:25.229Z,38.40
2023-02-13T21:24:59.914Z,38.35
2023-02-13T21:27:37.931Z,43.63
2023-02-13T21:30:07.664Z,48.67
2023-02-13T21:32:40.108Z,42.67
2023-02-13T21:35:11.042Z,47.65
2023-02-13T21:37:39.375Z,47.58
2023-02-13T21:40:14.549Z,41.60
2023-02-13T21:42:47.975Z,41.65
2023-02-13T21:45:19.376Z,49.80
2023-02-13T21:47:53.490Z,32.13
2023-02-13T21:50:22.316Z,46.92
2023-02-13T21:52:53.294Z,39.70
2023-02-13T21:55:24.154Z,44.33
2023-02-13T21:57:58.211Z,49.97
2023-02-13T22:00:27.677Z,42.78
2023-02-13T22:02:59.412Z,38.40
2023-02-13T22:05:27.759Z,46.35
2023-02-13T22:08:14.131Z,43.90
2023-02-13T22:10:44.314Z,41.47
2023-02-13T22:13:13.176Z,45.10
2023-02-13T22:15:41.392Z,43.60
2023-02-13T22:18:09.690Z,44.30
2023-02-13T22:20:37.913Z,44.85
2023-02-13T22:23:05.968Z,43.95
2023-02-13T22:25:34.817Z,51.40
2023-02-13T22:28:07.090Z,50.38
2023-02-13T22:30:40.833Z,44.20
2023-02-13T22:36:17.112Z,24.47
2023-02-13T22:38:50.565Z,39.83
2023-02-13T22:41:23.171Z,41.05
2023-02-13T22:43:53.481Z,54.03
2023-02-13T22:46:24.090Z,45.03
2023-02-13T22:48:54.709Z,47.08
2023-02-13T22:51:24.468Z,51.67
2023-02-13T22:53:54.052Z,47.05
2023-02-13T22:56:25.334Z,42.40
2023-02-13T22:58:55.031Z,44.30
2023-02-13T23:01:24.458Z,46.13
2023-02-13T23:03:52.936Z,40.17
2023-02-13T23:06:21.816Z,54.30
2023-02-13T23:08:52.575Z,39.65
2023-02-13T23:11:38.621Z,51.85
2023-02-13T23:14:08.061Z,58.40
2023-02-13T23:16:51.959Z,45.58
2023-02-13T23:19:20.472Z,62.55
2023-02-13T23:21:49.028Z,55.35
2023-02-13T23:24:21.753Z,57.10
2023-02-13T23:26:51.603Z,48.28
2023-02-13T23:29:21.087Z,42.38
2023-02-13T23:31:51.849Z,44.00
2023-02-13T23:34:22.498Z,44.97
2023-02-13T23:36:58.308Z,41.88
2023-02-13T23:39:39.647Z,47.20
2023-02-13T23:42:07.872Z,43.72
2023-02-13T23:44:37.330Z,39.00
2023-02-13T23:47:05.679Z,41.38
2023-02-13T23:49:34.025Z,39.85
2023-02-13T23:52:05.348Z,43.55
2023-02-13T23:54:39.690Z,42.90
2023-02-13T23:57:08.178Z,45.80
2023-02-13T23:59:38.680Z,40.75
